createdAt,value
2023-01-21T00:02:22.103Z,0.90
2023-01-21T00:04:48.491Z,0.73
2023-01-21T00:07:14.845Z,0.94
2023-01-21T00:09:41.195Z,0.88
2023-01-21T00:12:07.699Z,0.92
2023-01-21T00:14:34.042Z,0.81
2023-01-21T00:17:00.536Z,1.01
2023-01-21T00:19:27.529Z,0.91
2023-01-21T00:21:53.827Z,0.91
2023-01-21T00:24:22.886Z,0.97
2023-01-21T00:26:49.237Z,0.94
2023-01-21T00:29:15.742Z,0.96
2023-01-21T00:31:42.185Z,1.00
2023-01-21T00:34:09.749Z,0.90
2023-01-21T00:36:36.066Z,0.93
2023-01-21T00:39:02.393Z,0.87
2023-01-21T00:41:28.693Z,0.94
2023-01-21T00:43:54.997Z,0.91
2023-01-21T00:46:21.380Z,0.89
2023-01-21T00:48:47.737Z,0.85
2023-01-21T00:51:14.170Z,0.91
2023-01-21T00:53:41.939Z,0.83
2023-01-21T00:56:11.640Z,0.78
2023-01-21T00:58:38.549Z,0.71
2023-01-21T01:01:10.900Z,0.86
2023-01-21T01:03:38.564Z,0.72
2023-01-21T01:06:10.999Z,0.73
2023-01-21T01:08:37.740Z,0.61
2023-01-21T01:11:04.761Z,0.73
2023-01-21T01:13:33.064Z,0.68
2023-01-21T01:16:00.139Z,0.70
2023-01-21T01:18:27.815Z,0.85
2023-01-21T01:20:54.434Z,0.81
2023-01-21T01:23:21.020Z,0.59
2023-01-21T01:26:02.512Z,0.56
2023-01-21T01:28:29.994Z,0.52
2023-01-21T01:30:56.638Z,0.54
2023-01-21T01:33:23.393Z,0.50
2023-01-21T01:35:49.887Z,0.48
2023-01-21T01:38:20.104Z,0.41
2023-01-21T01:40:47.845Z,0.41
2023-01-21T01:43:16.810Z,0.31
2023-01-21T01:45:43.841Z,0.44
2023-01-21T01:48:16.222Z,0.30
2023-01-21T01:50:42.844Z,0.41
2023-01-21T01:53:12.371Z,0.24
2023-01-21T01:55:39.713Z,0.20
2023-01-21T01:58:10.777Z,0.09
2023-01-21T02:00:37.157Z,0.23
2023-01-21T02:03:22.633Z,0.28
2023-01-21T02:05:50.709Z,0.17
2023-01-21T02:08:17.513Z,-0.03
2023-01-21T02:10:44.079Z,0.04
2023-01-21T02:13:11.710Z,-0.13
2023-01-21T02:15:52.564Z,-0.26
2023-01-21T02:18:37.740Z,-0.18
2023-01-21T02:21:25.321Z,-0.25
2023-01-21T02:24:26.211Z,-0.22
2023-01-21T02:27:07.800Z,-0.17
2023-01-21T02:29:57.462Z,-0.47
2023-01-21T02:32:51.795Z,-0.52
2023-01-21T02:35:45.122Z,-0.44
2023-01-21T02:38:27.505Z,-0.64
2023-01-21T02:41:19.286Z,-0.67
2023-01-21T02:44:07.887Z,-0.60
2023-01-21T02:46:42.836Z,-0.68
2023-01-21T02:49:29.021Z,-0.62
2023-01-21T02:51:55.385Z,-0.63
2023-01-21T02:54:39.928Z,-0.71
2023-01-21T02:57:10.457Z,-0.80
2023-01-21T02:59:39.774Z,-1.08
2023-01-21T03:02:38.218Z,-0.75
2023-01-21T03:05:21.311Z,-0.81
2023-01-21T03:07:58.386Z,-0.92
2023-01-21T03:10:38.584Z,-1.16
2023-01-21T03:13:12.095Z,-1.07
2023-01-21T03:16:06.655Z,-1.01
2023-01-21T03:18:40.261Z,-0.81
2023-01-21T03:21:16.726Z,-0.77
2023-01-21T03:23:47.810Z,-0.88
2023-01-21T03:26:18.653Z,-0.68
2023-01-21T03:28:48.926Z,-0.66
2023-01-21T03:31:20.716Z,-0.62
2023-01-21T03:33:52.249Z,-0.78
2023-01-21T03:36:31.489Z,-0.78
2023-01-21T03:39:00.431Z,-0.93
2023-01-21T03:41:36.391Z,-0.83
2023-01-21T03:44:03.357Z,-0.85
2023-01-21T03:46:48.029Z,-0.88
2023-01-21T03:49:19.750Z,-0.81
2023-01-21T03:51:54.662Z,-0.85
2023-01-21T03:54:22.038Z,-0.82
2023-01-21T03:56:48.383Z,-0.88
2023-01-21T03:59:14.788Z,-0.86
2023-01-21T04:01:41.657Z,-0.70
2023-01-21T04:04:09.246Z,-0.78
2023-01-21T04:06:36.949Z,-0.81
2023-01-21T04:09:04.670Z,-0.91
2023-01-21T04:11:31.015Z,-0.84
2023-01-21T04:13:57.454Z,-0.93
2023-01-21T04:16:23.775Z,-0.81
2023-01-21T04:18:50.242Z,-0.70
2023-01-21T04:21:17.056Z,-0.93
2023-01-21T04:23:43.431Z,-0.84
2023-01-21T04:26:09.881Z,-0.57
2023-01-21T04:28:36.431Z,-0.68
2023-01-21T04:31:02.970Z,-0.85
2023-01-21T04:33:30.566Z,-0.75
2023-01-21T04:35:59.005Z,-0.85
2023-01-21T04:38:25.756Z,-0.66
2023-01-21T04:40:52.098Z,-0.68
2023-01-21T04:43:18.539Z,-0.59
2023-01-21T04:45:44.963Z,-0.65
2023-01-21T04:48:11.299Z,-0.83
2023-01-21T04:50:37.757Z,-0.75
2023-01-21T04:53:04.175Z,-0.65
2023-01-21T04:55:30.478Z,-0.56
2023-01-21T04:57:56.800Z,-0.70
2023-01-21T05:00:23.295Z,-0.82
2023-01-21T05:02:50.004Z,-0.72
2023-01-21T05:05:16.528Z,-0.85
2023-01-21T05:07:42.909Z,-0.83
2023-01-21T05:10:16.511Z,-1.03
2023-01-21T05:12:43.247Z,-0.87
2023-01-21T05:15:10.399Z,-0.68
2023-01-21T05:17:36.798Z,-0.49
2023-01-21T05:20:03.609Z,-0.68
2023-01-21T05:22:30.023Z,-0.82
2023-01-21T05:24:56.326Z,-0.77
2023-01-21T05:27:22.638Z,-0.81
2023-01-21T05:29:48.955Z,-0.70
2023-01-21T05:32:15.298Z,-0.60
2023-01-21T05:34:41.602Z,-0.81
2023-01-21T05:37:07.913Z,-0.74
2023-01-21T05:39:34.289Z,-0.91
2023-01-21T05:42:00.623Z,-0.85
2023-01-21T05:44:27.023Z,-0.78
2023-01-21T05:46:53.436Z,-0.83
2023-01-21T05:49:22.763Z,-0.84
2023-01-21T05:51:49.087Z,-0.72
2023-01-21T05:54:15.522Z,-0.81
2023-01-21T05:56:41.838Z,-0.79
2023-01-21T05:59:09.062Z,-0.64
2023-01-21T06:01:36.003Z,-0.75
2023-01-21T06:04:02.309Z,-0.64
2023-01-21T06:06:28.652Z,-0.65
2023-01-21T06:08:54.919Z,-0.45
2023-01-21T06:11:21.250Z,-0.79
2023-01-21T06:13:47.619Z,-0.69
2023-01-21T06:16:13.917Z,-0.50
2023-01-21T06:18:40.468Z,-0.64
2023-01-21T06:21:06.855Z,-0.36
2023-01-21T06:23:33.250Z,-0.19
2023-01-21T06:26:00.745Z,-0.41
2023-01-21T06:28:27.379Z,-0.48
2023-01-21T06:30:53.822Z,-0.36
2023-01-21T06:33:20.177Z,-0.79
2023-01-21T06:35:47.325Z,-0.67
2023-01-21T06:38:13.941Z,-0.60
2023-01-21T06:40:40.375Z,-0.85
2023-01-21T06:43:06.676Z,-0.70
2023-01-21T06:45:33.035Z,-1.01
2023-01-21T06:47:59.325Z,-0.93
2023-01-21T06:50:25.675Z,-1.10
2023-01-21T06:52:51.975Z,-1.38
2023-01-21T06:55:18.317Z,-1.14
2023-01-21T06:57:44.807Z,-1.21
2023-01-21T07:00:12.537Z,-1.39
2023-01-21T07:02:38.936Z,-1.42
2023-01-21T07:05:06.061Z,-2.04
2023-01-21T07:07:32.437Z,-1.68
2023-01-21T07:09:58.730Z,-1.91
2023-01-21T07:12:25.203Z,-2.01
2023-01-21T07:14:51.515Z,-1.84
2023-01-21T07:17:17.856Z,-1.86
2023-01-21T07:19:44.411Z,-1.96
2023-01-21T07:22:11.148Z,-2.07
2023-01-21T07:24:37.615Z,-2.20
2023-01-21T07:27:06.015Z,-2.30
2023-01-21T07:29:32.303Z,-2.59
2023-01-21T07:31:58.695Z,-2.40
2023-01-21T07:34:25.048Z,-3.13
2023-01-21T07:36:51.357Z,-2.90
2023-01-21T07:39:17.686Z,-2.60
2023-01-21T07:41:44.021Z,-3.16
2023-01-21T07:44:11.573Z,-2.98
2023-01-21T07:46:37.937Z,-2.88
2023-01-21T07:49:04.316Z,-2.93
2023-01-21T07:51:30.812Z,-2.93
2023-01-21T07:53:58.163Z,-3.27
2023-01-21T07:56:26.584Z,-3.32
2023-01-21T07:58:52.932Z,-3.57
2023-01-21T08:01:19.273Z,-3.40
2023-01-21T08:03:45.621Z,-2.93
2023-01-21T08:06:11.969Z,-2.79
2023-01-21T08:08:38.273Z,-3.06
2023-01-21T08:11:04.745Z,-2.98
2023-01-21T08:13:31.097Z,-2.89
2023-01-21T08:15:58.580Z,-2.86
2023-01-21T08:18:25.298Z,-3.02
2023-01-21T08:20:58.100Z,-2.56
2023-01-21T08:23:25.890Z,-2.56
2023-01-21T08:25:52.853Z,-2.89
2023-01-21T08:28:19.151Z,-2.58
2023-01-21T08:30:45.512Z,-2.56
2023-01-21T08:33:11.962Z,-2.51
2023-01-21T08:35:38.600Z,-2.14
2023-01-21T08:38:05.035Z,-2.34
2023-01-21T08:40:31.464Z,-2.27
2023-01-21T08:43:02.377Z,-2.05
2023-01-21T08:45:29.696Z,-1.86
2023-01-21T08:47:56.844Z,-1.79
2023-01-21T08:50:23.830Z,-1.82
2023-01-21T08:52:52.095Z,-1.68
2023-01-21T08:55:18.677Z,-1.71
2023-01-21T08:57:45.226Z,-1.49
2023-01-21T09:00:12.214Z,-1.41
2023-01-21T09:02:38.489Z,-1.45
2023-01-21T09:05:05.429Z,-1.27
2023-01-21T09:07:31.952Z,-1.31
2023-01-21T09:09:58.246Z,-1.31
2023-01-21T09:12:24.588Z,-1.31
2023-01-21T09:14:50.957Z,-1.27
2023-01-21T09:17:17.325Z,-1.25
2023-01-21T09:19:43.788Z,-1.26
2023-01-21T09:22:10.178Z,-1.33
2023-01-21T09:24:36.533Z,-1.30
2023-01-21T09:27:02.938Z,-1.17
2023-01-21T09:29:29.226Z,-1.05
2023-01-21T09:31:55.554Z,-1.04
2023-01-21T09:34:23.040Z,-1.02
2023-01-21T09:36:49.396Z,-0.96
2023-01-21T09:39:16.708Z,-0.76
2023-01-21T09:41:48.942Z,-0.74
2023-01-21T09:44:35.101Z,-0.67
2023-01-21T09:47:24.425Z,-0.88
2023-01-21T09:49:55.831Z,-0.84
2023-01-21T09:52:31.159Z,-0.82
2023-01-21T09:54:58.564Z,-0.69
2023-01-21T09:57:34.914Z,-0.87
2023-01-21T10:00:07.253Z,-0.95
2023-01-21T10:02:51.267Z,-0.87
2023-01-21T10:05:36.291Z,-0.71
2023-01-21T10:08:13.248Z,-0.43
2023-01-21T10:11:04.506Z,-0.45
2023-01-21T10:13:39.553Z,-0.61
2023-01-21T10:16:18.010Z,-0.50
2023-01-21T10:18:48.318Z,-0.52
2023-01-21T10:21:34.955Z,-0.59
2023-01-21T10:24:12.929Z,-0.47
2023-01-21T10:26:42.813Z,-0.48
2023-01-21T10:29:16.044Z,-0.48
2023-01-21T10:31:44.886Z,-0.32
2023-01-21T10:34:14.639Z,-0.28
2023-01-21T10:36:53.599Z,-0.23
2023-01-21T10:40:01.822Z,-0.32
2023-01-21T10:42:33.806Z,-0.25
2023-01-21T10:45:30.579Z,-0.18
2023-01-21T10:48:22.915Z,-0.19
2023-01-21T10:50:57.860Z,-0.13
2023-01-21T10:53:45.311Z,-0.11
2023-01-21T10:56:30.095Z,-0.02
2023-01-21T10:59:04.933Z,0.02
2023-01-21T11:01:41.259Z,-0.13
2023-01-21T11:04:20.304Z,-0.02
2023-01-21T11:07:04.439Z,-0.04
2023-01-21T11:09:46.362Z,-0.07
2023-01-21T11:12:18.032Z,-0.14
2023-01-21T11:14:57.864Z,-0.19
2023-01-21T11:17:33.177Z,0.03
2023-01-21T11:20:01.802Z,-0.04
2023-01-21T11:22:31.350Z,0.03
2023-01-21T11:24:59.006Z,-0.04
2023-01-21T11:27:28.448Z,-0.04
2023-01-21T11:29:54.791Z,-0.16
2023-01-21T11:32:23.580Z,-0.07
2023-01-21T11:34:53.095Z,0.02
2023-01-21T11:37:26.766Z,-0.08
2023-01-21T11:40:03.384Z,-0.15
2023-01-21T11:42:29.704Z,-0.03
2023-01-21T11:44:58.755Z,-0.12
2023-01-21T11:47:51.224Z,-0.10
2023-01-21T11:50:32.965Z,-0.03
2023-01-21T11:53:11.392Z,0.09
2023-01-21T11:55:42.341Z,0.13
2023-01-21T11:58:28.836Z,-0.02
2023-01-21T12:00:57.837Z,0.06
2023-01-21T12:03:29.483Z,0.08
2023-01-21T12:05:55.939Z,0.10
2023-01-21T12:08:27.033Z,0.19
2023-01-21T12:10:56.244Z,0.24
2023-01-21T12:13:27.325Z,0.35
2023-01-21T12:16:14.080Z,0.23
2023-01-21T12:18:47.875Z,0.23
2023-01-21T12:21:25.007Z,0.24
2023-01-21T12:24:09.989Z,0.22
2023-01-21T12:26:56.177Z,0.27
2023-01-21T12:29:44.746Z,0.33
2023-01-21T12:32:33.094Z,0.28
2023-01-21T12:35:05.292Z,0.30
2023-01-21T12:37:42.697Z,0.32
2023-01-21T12:40:18.417Z,0.35
2023-01-21T12:42:50.218Z,0.29
2023-01-21T12:45:22.212Z,0.35
2023-01-21T12:48:17.225Z,0.33
2023-01-21T12:50:49.858Z,0.43
2023-01-21T12:53:20.635Z,0.39
2023-01-21T12:56:07.932Z,0.37
2023-01-21T12:59:42.073Z,0.39
2023-01-21T13:02:23.125Z,0.31
2023-01-21T13:04:57.225Z,0.43
2023-01-21T13:07:30.010Z,0.42
2023-01-21T13:10:26.995Z,0.48
2023-01-21T13:13:03.504Z,0.45
2023-01-21T13:15:36.031Z,0.34
2023-01-21T13:18:10.718Z,0.33
2023-01-21T13:20:41.546Z,0.39
2023-01-21T13:23:13.095Z,0.53
2023-01-21T13:25:54.438Z,0.42
2023-01-21T13:28:26.042Z,0.36
2023-01-21T13:31:01.980Z,0.54
2023-01-21T13:33:40.478Z,0.47
2023-01-21T13:36:32.609Z,0.47
2023-01-21T13:39:23.340Z,0.52
2023-01-21T13:41:55.453Z,0.48
2023-01-21T13:44:43.958Z,0.54
2023-01-21T13:47:35.877Z,0.52
2023-01-21T13:50:18.677Z,0.41
2023-01-21T13:53:11.237Z,0.45
2023-01-21T13:55:46.552Z,0.34
2023-01-21T13:58:15.708Z,0.52
2023-01-21T14:01:00.838Z,0.29
2023-01-21T14:03:35.333Z,0.38
2023-01-21T14:06:15.669Z,0.41
2023-01-21T14:09:14.213Z,0.51
2023-01-21T14:11:50.282Z,0.53
2023-01-21T14:14:41.458Z,0.48
2023-01-21T14:17:29.291Z,0.57
2023-01-21T14:20:19.317Z,0.40
2023-01-21T14:23:22.243Z,0.37
2023-01-21T14:26:04.052Z,0.32
2023-01-21T14:28:43.631Z,0.30
2023-01-21T14:31:18.068Z,0.50
2023-01-21T14:33:55.106Z,0.36
2023-01-21T14:36:41.533Z,0.41
2023-01-21T14:39:23.525Z,0.59
2023-01-21T14:42:06.169Z,0.66
2023-01-21T14:44:40.463Z,0.61
2023-01-21T14:47:38.897Z,0.71
2023-01-21T14:50:07.277Z,0.63
2023-01-21T14:52:45.557Z,0.67
2023-01-21T14:55:27.533Z,0.57
2023-01-21T14:57:55.063Z,0.65
2023-01-21T15:00:25.237Z,0.56
2023-01-21T15:03:18.761Z,0.67
2023-01-21T15:05:50.799Z,0.65
2023-01-21T15:08:23.619Z,0.64
2023-01-21T15:10:55.742Z,0.69
2023-01-21T15:13:34.224Z,0.61
2023-01-21T15:16:06.031Z,0.71
2023-01-21T15:18:38.739Z,0.64
2023-01-21T15:21:44.842Z,0.58
2023-01-21T15:24:36.044Z,0.59
2023-01-21T15:27:27.946Z,0.64
2023-01-21T15:29:54.413Z,0.61
2023-01-21T15:32:23.898Z,0.69
2023-01-21T15:34:54.500Z,0.56
2023-01-21T15:37:23.842Z,0.57
2023-01-21T15:39:52.220Z,0.38
2023-01-21T15:42:49.463Z,0.51
2023-01-21T15:45:30.276Z,0.60
2023-01-21T15:48:17.872Z,0.64
2023-01-21T15:50:58.075Z,0.60
2023-01-21T15:53:57.979Z,0.58
2023-01-21T15:56:43.045Z,0.60
2023-01-21T15:59:39.784Z,0.53
2023-01-21T16:02:24.356Z,0.68
2023-01-21T16:05:21.498Z,0.57
2023-01-21T16:08:14.220Z,0.56
2023-01-21T16:11:00.188Z,0.53
2023-01-21T16:13:54.871Z,0.52
2023-01-21T16:16:38.399Z,0.50
2023-01-21T16:19:12.343Z,0.53
2023-01-21T16:21:41.780Z,0.51
2023-01-21T16:24:14.108Z,0.39
2023-01-21T16:26:40.450Z,0.56
2023-01-21T16:29:13.136Z,0.52
2023-01-21T16:32:01.433Z,0.49
2023-01-21T16:34:30.573Z,0.52
2023-01-21T16:36:57.511Z,0.47
2023-01-21T16:39:24.524Z,0.30
2023-01-21T16:42:02.763Z,0.53
2023-01-21T16:44:29.343Z,0.51
2023-01-21T16:46:55.984Z,0.56
2023-01-21T16:49:22.370Z,0.49
2023-01-21T16:52:01.295Z,0.45
2023-01-21T16:54:32.465Z,0.58
2023-01-21T16:57:00.717Z,0.47
2023-01-21T16:59:41.741Z,0.46
2023-01-21T17:02:31.215Z,0.42
2023-01-21T17:05:00.199Z,0.45
2023-01-21T17:07:32.275Z,0.43
2023-01-21T17:10:04.004Z,0.40
2023-01-21T17:12:32.308Z,0.22
2023-01-21T17:15:03.939Z,0.32
2023-01-21T17:17:34.905Z,0.40
2023-01-21T17:20:01.680Z,0.47
2023-01-21T17:22:33.309Z,0.48
2023-01-21T17:25:02.385Z,0.40
2023-01-21T17:27:30.196Z,0.37
2023-01-21T17:30:27.657Z,0.28
2023-01-21T17:32:56.907Z,0.36
2023-01-21T17:35:24.890Z,0.21
2023-01-21T17:37:59.448Z,0.29
2023-01-21T17:40:45.604Z,0.42
2023-01-21T17:43:23.458Z,0.41
2023-01-21T17:45:52.365Z,0.37
2023-01-21T17:48:44.180Z,0.43
2023-01-21T17:51:25.369Z,0.41
2023-01-21T17:53:58.832Z,0.47
2023-01-21T17:56:37.406Z,0.52
2023-01-21T17:59:04.293Z,0.38
2023-01-21T18:01:31.351Z,0.24
2023-01-21T18:03:57.763Z,0.24
2023-01-21T18:06:28.709Z,0.47
2023-01-21T18:08:56.918Z,0.33
2023-01-21T18:11:23.511Z,0.33
2023-01-21T18:13:50.147Z,0.32
2023-01-21T18:16:16.575Z,0.29
2023-01-21T18:18:43.156Z,0.44
2023-01-21T18:21:17.123Z,0.47
2023-01-21T18:23:43.510Z,0.33
2023-01-21T18:26:19.992Z,0.39
2023-01-21T18:28:46.316Z,0.36
2023-01-21T18:31:13.001Z,0.47
2023-01-21T18:33:39.332Z,0.40
2023-01-21T18:36:06.105Z,0.28
2023-01-21T18:38:35.552Z,0.44
2023-01-21T18:41:01.984Z,0.42
2023-01-21T18:43:28.349Z,0.36
2023-01-21T18:45:54.947Z,0.35
2023-01-21T18:48:27.518Z,0.24
2023-01-21T18:50:54.228Z,0.44
2023-01-21T18:53:20.648Z,0.32
2023-01-21T18:55:50.591Z,0.38
2023-01-21T18:58:17.197Z,0.44
2023-01-21T19:00:43.595Z,0.28
2023-01-21T19:03:13.179Z,0.37
2023-01-21T19:05:42.154Z,0.30
2023-01-21T19:08:14.741Z,0.27
2023-01-21T19:10:41.080Z,0.22
2023-01-21T19:13:09.383Z,0.17
2023-01-21T19:15:35.928Z,0.32
2023-01-21T19:18:02.523Z,0.20
2023-01-21T19:20:29.638Z,0.22
2023-01-21T19:22:56.492Z,0.25
2023-01-21T19:25:25.898Z,0.18
2023-01-21T19:27:54.354Z,0.09
2023-01-21T19:30:22.077Z,0.14
2023-01-21T19:32:49.500Z,0.14
2023-01-21T19:35:17.889Z,0.15
2023-01-21T19:37:49.104Z,0.09
2023-01-21T19:40:16.853Z,0.07
2023-01-21T19:42:43.412Z,0.17
2023-01-21T19:45:10.403Z,0.19
2023-01-21T19:47:38.132Z,0.26
2023-01-21T19:50:06.283Z,0.20
2023-01-21T19:52:37.887Z,0.27
2023-01-21T19:55:06.038Z,0.22
2023-01-21T19:57:32.681Z,0.28
2023-01-21T19:59:59.595Z,0.30
2023-01-21T20:02:25.955Z,0.19
2023-01-21T20:04:52.301Z,0.12
2023-01-21T20:07:18.717Z,0.21
2023-01-21T20:09:45.568Z,0.20
2023-01-21T20:12:12.751Z,0.14
2023-01-21T20:14:39.081Z,0.14
2023-01-21T20:17:05.540Z,0.21
2023-01-21T20:19:31.928Z,0.28
2023-01-21T20:22:02.500Z,0.24
2023-01-21T20:24:33.312Z,0.20
2023-01-21T20:27:02.178Z,0.13
2023-01-21T20:29:28.565Z,0.21
2023-01-21T20:31:54.990Z,0.21
2023-01-21T20:34:21.452Z,0.19
2023-01-21T20:36:49.442Z,0.15
2023-01-21T20:39:15.810Z,0.16
2023-01-21T20:41:43.242Z,0.30
2023-01-21T20:44:09.576Z,0.23
2023-01-21T20:46:35.899Z,0.37
2023-01-21T20:49:02.368Z,0.24
2023-01-21T20:51:28.772Z,0.16
2023-01-21T20:53:55.260Z,0.14
2023-01-21T20:56:25.348Z,0.20
2023-01-21T20:58:51.715Z,0.26
2023-01-21T21:01:20.668Z,0.26
2023-01-21T21:03:47.345Z,0.28
2023-01-21T21:06:18.784Z,0.20
2023-01-21T21:08:45.428Z,0.19
2023-01-21T21:11:13.696Z,0.42
2023-01-21T21:13:40.101Z,0.07
2023-01-21T21:16:31.758Z,0.19
2023-01-21T21:18:59.217Z,0.18
2023-01-21T21:21:25.619Z,0.08
2023-01-21T21:23:53.136Z,0.15
2023-01-21T21:26:22.862Z,0.19
2023-01-21T21:28:50.429Z,0.16
2023-01-21T21:31:18.135Z,0.12
2023-01-21T21:33:44.931Z,0.10
2023-01-21T21:36:23.241Z,0.08
2023-01-21T21:38:51.968Z,0.12
2023-01-21T21:41:41.742Z,0.18
2023-01-21T21:44:09.974Z,0.11
2023-01-21T21:46:56.063Z,0.12
2023-01-21T21:49:22.781Z,0.24
2023-01-21T21:51:49.132Z,0.22
2023-01-21T21:54:15.925Z,0.21
2023-01-21T21:56:42.604Z,0.24
2023-01-21T21:59:08.930Z,0.26
2023-01-21T22:01:35.856Z,0.31
2023-01-21T22:04:03.393Z,0.19
2023-01-21T22:06:30.500Z,0.09
2023-01-21T22:08:58.647Z,0.15
2023-01-21T22:11:25.452Z,0.13
2023-01-21T22:13:53.035Z,0.18
2023-01-21T22:16:25.787Z,0.14
2023-01-21T22:18:52.822Z,0.11
2023-01-21T22:21:22.875Z,0.19
2023-01-21T22:23:49.946Z,0.20
2023-01-21T22:26:18.887Z,0.22
2023-01-21T22:28:45.592Z,0.08
2023-01-21T22:31:16.038Z,0.03
2023-01-21T22:33:42.490Z,-0.03
2023-01-21T22:36:14.265Z,0.08
2023-01-21T22:38:41.038Z,0.01
2023-01-21T22:41:07.936Z,0.04
2023-01-21T22:43:35.001Z,0.06
2023-01-21T22:46:01.863Z,-0.02
2023-01-21T22:48:28.543Z,0.07
2023-01-21T22:50:57.459Z,0.06
2023-01-21T22:53:24.823Z,0.07
2023-01-21T22:55:55.213Z,0.00
2023-01-21T22:58:22.060Z,0.04
2023-01-21T23:00:48.952Z,0.08
2023-01-21T23:03:15.551Z,0.02
2023-01-21T23:05:42.198Z,0.00
2023-01-21T23:08:08.666Z,0.10
2023-01-21T23:10:35.021Z,0.02
2023-01-21T23:13:01.564Z,-0.03
2023-01-21T23:15:27.860Z,0.03
2023-01-21T23:17:54.387Z,0.12
2023-01-21T23:20:21.186Z,0.01
2023-01-21T23:22:47.767Z,0.03
2023-01-21T23:25:14.796Z,0.13
2023-01-21T23:27:41.283Z,0.08
2023-01-21T23:30:08.226Z,0.03
2023-01-21T23:32:34.522Z,0.09
2023-01-21T23:35:00.828Z,0.03
2023-01-21T23:37:27.199Z,-0.02
2023-01-21T23:39:53.517Z,-0.01
2023-01-21T23:42:21.339Z,0.05
2023-01-21T23:44:47.805Z,-0.01
2023-01-21T23:47:14.111Z,0.14
2023-01-21T23:49:40.417Z,0.15
2023-01-21T23:52:12.056Z,0.08
2023-01-21T23:54:39.711Z,0.00
2023-01-21T23:57:07.055Z,0.06
2023-01-21T23:59:34.085Z,0.10
